Time;durP1;ratioP1;P1;durP2;ratioP2;P2;SDS_P1;SDS_P2;PMS_P1;PMS_P2;Temp;Humidity;BMP_temperature;BMP_pressure;BME280_temperature;BME280_humidity;BME280_pressure;Samples;Min_cycle;Max_cycle;Signal;HPM_P1;HPM_P2
2022/06/06 00:01:40;;;;;;;6.15;5.55;;;22.60;99.90;;;;;;5032536;28;20854;-70
2022/06/06 00:04:06;;;;;;;6.80;6.30;;;22.60;99.90;;;;;;5033136;28;20603;-69
2022/06/06 00:06:32;;;;;;;6.90;6.15;;;22.60;99.90;;;;;;5050525;28;20249;-72
2022/06/06 00:08:57;;;;;;;6.57;5.97;;;22.60;99.90;;;;;;5032861;28;20210;-72
2022/06/06 00:11:23;;;;;;;7.32;6.00;;;22.50;99.90;;;;;;5032582;28;20278;-72
2022/06/06 00:13:49;;;;;;;9.05;5.68;;;22.60;99.90;;;;;;5050592;28;20198;-70
2022/06/06 00:16:15;;;;;;;7.03;6.32;;;22.50;99.90;;;;;;5032986;28;20180;-71
2022/06/06 00:18:40;;;;;;;6.97;6.38;;;22.50;99.90;;;;;;5032023;28;20208;-69
2022/06/06 00:21:09;;;;;;;7.13;6.45;;;22.50;99.90;;;;;;5050572;28;20325;-70
2022/06/06 00:23:36;;;;;;;6.72;6.10;;;22.50;99.90;;;;;;5050209;28;20207;-69
2022/06/06 00:26:07;;;;;;;8.23;6.10;;;22.50;99.90;;;;;;5032449;28;20203;-70
2022/06/06 00:28:34;;;;;;;7.40;5.75;;;22.50;99.90;;;;;;5032384;28;20269;-70
2022/06/06 00:34:48;;;;;;;7.70;6.30;;;22.50;99.90;;;;;;5033226;28;20199;-70
2022/06/06 00:36:32;;;;;;;7.20;6.50;;;22.60;99.90;;;;;;5049867;28;20707;-70
2022/06/06 00:38:57;;;;;;;6.90;6.25;;;22.50;99.90;;;;;;5031671;28;20261;-70
2022/06/06 00:41:23;;;;;;;6.78;6.13;;;22.50;99.90;;;;;;5032444;28;20211;-70
2022/06/06 00:44:07;;;;;;;7.00;6.28;;;22.50;99.90;;;;;;5050400;28;20168;-70
2022/06/06 00:46:36;;;;;;;8.40;6.53;;;22.60;99.90;;;;;;5032706;28;20258;-70
2022/06/06 00:49:03;;;;;;;7.28;6.40;;;22.60;99.90;;;;;;5049775;28;20206;-70
2022/06/06 00:51:31;;;;;;;8.57;6.45;;;22.60;99.90;;;;;;5035767;28;20265;-69
2022/06/06 00:53:57;;;;;;;6.43;5.60;;;22.50;99.90;;;;;;5036019;28;20257;-70
2022/06/06 00:56:32;;;;;;;7.15;6.30;;;22.60;99.90;;;;;;5053795;28;20217;-69
2022/06/06 00:59:05;;;;;;;6.60;5.85;;;22.50;99.90;;;;;;5035215;28;20231;-70
2022/06/06 01:01:34;;;;;;;6.60;6.00;;;22.40;99.90;;;;;;5036233;28;20210;-70
2022/06/06 01:04:01;;;;;;;7.57;6.88;;;22.20;99.90;;;;;;5053467;28;20291;-70
2022/06/06 01:06:29;;;;;;;7.68;6.97;;;22.20;99.90;;;;;;5053557;28;20571;-70
2022/06/06 01:08:56;;;;;;;7.95;6.75;;;22.00;99.90;;;;;;5035265;28;20207;-70
2022/06/06 01:11:21;;;;;;;7.55;6.95;;;21.90;99.90;;;;;;5053493;28;20751;-69
2022/06/06 01:13:48;;;;;;;7.90;7.20;;;21.90;99.90;;;;;;5035574;28;20270;-70
2022/06/06 01:16:32;;;;;;;7.53;6.82;;;21.80;99.90;;;;;;5036115;28;20259;-70
2022/06/06 01:19:31;;;;;;;7.32;6.70;;;21.70;99.90;;;;;;5035166;28;20221;-71
2022/06/06 01:22:31;;;;;;;8.82;6.97;;;21.70;99.90;;;;;;5053338;28;20589;-70
2022/06/06 01:25:21;;;;;;;7.82;7.13;;;21.50;99.90;;;;;;5035418;28;20192;-70
2022/06/06 01:27:53;;;;;;;8.07;6.88;;;21.40;99.90;;;;;;5035227;28;20649;-70
2022/06/06 01:30:23;;;;;;;7.82;7.13;;;21.30;99.90;;;;;;5035236;28;20203;-71
2022/06/06 01:32:55;;;;;;;8.32;7.53;;;21.30;99.90;;;;;;5035171;28;20250;-70
2022/06/06 01:35:22;;;;;;;8.05;7.25;;;21.30;99.90;;;;;;5035634;28;20235;-70
2022/06/06 01:37:48;;;;;;;8.63;7.82;;;21.30;99.90;;;;;;5035181;28;20182;-70
2022/06/06 01:40:16;;;;;;;8.75;7.47;;;21.30;99.90;;;;;;5036099;28;20577;-71
2022/06/06 01:43:03;;;;;;;8.40;7.60;;;21.20;99.90;;;;;;5035381;28;20207;-70
2022/06/06 01:45:42;;;;;;;9.10;8.27;;;21.30;99.90;;;;;;5034908;28;20253;-70
2022/06/06 01:48:15;;;;;;;9.07;8.18;;;21.40;99.90;;;;;;5052850;28;20295;-70
2022/06/06 01:50:43;;;;;;;8.05;7.22;;;21.50;99.90;;;;;;5034988;28;20208;-70
2022/06/06 01:53:12;;;;;;;8.27;7.47;;;21.50;99.90;;;;;;5053065;28;20204;-70
2022/06/06 01:55:43;;;;;;;8.65;7.85;;;21.50;99.90;;;;;;5034738;28;20278;-70
2022/06/06 01:58:38;;;;;;;11.32;8.32;;;21.50;99.90;;;;;;5034955;28;20282;-70
2022/06/06 02:01:04;;;;;;;9.50;8.60;;;21.50;99.90;;;;;;5087469;22;20578;-68
2022/06/06 02:03:33;;;;;;;13.32;9.70;;;21.50;99.90;;;;;;5091355;28;20224;-68
2022/06/06 02:06:01;;;;;;;10.63;9.43;;;21.50;99.90;;;;;;5092398;28;20280;-68
2022/06/06 02:08:27;;;;;;;9.77;8.52;;;21.50;99.90;;;;;;5090866;28;20202;-67
2022/06/06 02:10:53;;;;;;;10.38;9.38;;;21.40;99.90;;;;;;5092363;28;20663;-68
2022/06/06 02:13:19;;;;;;;12.70;11.38;;;21.20;99.90;;;;;;5069227;28;20662;-67
2022/06/06 02:15:45;;;;;;;13.55;10.75;;;21.20;99.90;;;;;;5090337;28;20281;-68
2022/06/06 02:18:12;;;;;;;21.35;16.88;;;21.20;99.90;;;;;;5090726;28;20198;-67
2022/06/06 02:20:37;;;;;;;17.40;14.07;;;21.20;99.90;;;;;;5091907;28;20221;-68
2022/06/06 02:23:03;;;;;;;16.92;12.65;;;21.10;99.90;;;;;;5092277;28;20225;-68
2022/06/06 02:25:30;;;;;;;19.00;16.33;;;21.10;99.90;;;;;;5092602;28;20259;-67
2022/06/06 02:27:56;;;;;;;13.48;11.02;;;21.20;99.90;;;;;;5090520;28;20256;-67
2022/06/06 02:30:25;;;;;;;12.18;10.43;;;21.10;99.90;;;;;;5091549;28;20214;-67
2022/06/06 02:32:51;;;;;;;13.13;11.63;;;21.10;99.90;;;;;;5092362;28;20203;-68
2022/06/06 02:35:20;;;;;;;13.48;11.50;;;21.00;99.90;;;;;;5091973;28;20209;-68
2022/06/06 02:37:47;;;;;;;12.20;9.80;;;21.00;99.90;;;;;;5074217;28;20182;-67
2022/06/06 02:40:15;;;;;;;10.13;9.05;;;21.00;99.90;;;;;;5090801;28;20382;-68
2022/06/06 02:42:41;;;;;;;11.45;9.27;;;21.00;99.90;;;;;;5096195;28;20206;-68
2022/06/06 02:45:12;;;;;;;10.40;9.35;;;21.00;99.90;;;;;;5089835;28;20214;-69
2022/06/06 02:47:38;;;;;;;9.80;8.93;;;20.80;99.90;;;;;;5093769;28;20282;-68
2022/06/06 02:50:06;;;;;;;9.70;8.80;;;20.80;99.90;;;;;;5089781;28;20734;-68
2022/06/06 02:52:33;;;;;;;9.77;8.82;;;20.70;99.90;;;;;;5091975;28;20654;-68
2022/06/06 02:54:59;;;;;;;9.65;8.77;;;20.80;99.90;;;;;;5091627;28;20721;-68
2022/06/06 02:57:26;;;;;;;10.90;9.88;;;20.70;99.90;;;;;;5091071;28;20202;-67
2022/06/06 02:59:52;;;;;;;10.18;9.15;;;20.60;99.90;;;;;;5089505;28;20202;-68
2022/06/06 03:02:18;;;;;;;11.32;10.13;;;20.60;99.90;;;;;;5090230;28;20576;-68
2022/06/06 03:04:43;;;;;;;12.05;10.77;;;20.70;99.90;;;;;;5089772;28;20170;-68
2022/06/06 03:07:29;;;;;;;10.60;9.55;;;20.60;99.90;;;;;;5091746;28;20174;-68
2022/06/06 03:10:10;;;;;;;11.80;10.75;;;20.70;99.90;;;;;;5075402;28;20487;-68
2022/06/06 03:13:10;;;;;;;12.15;10.95;;;20.70;99.90;;;;;;5089209;28;20230;-68
2022/06/06 03:20:46;;;;;;;11.45;10.25;;;20.60;99.90;;;;;;5088310;28;20255;-68
2022/06/06 03:21:47;;;;;;;12.73;11.52;;;20.30;99.90;;;;;;5090775;28;20260;-67
2022/06/06 03:24:18;;;;;;;12.00;10.85;;;20.30;99.90;;;;;;5089616;28;20198;-68
2022/06/06 03:27:05;;;;;;;12.27;11.07;;;20.30;99.90;;;;;;5089329;28;20205;-68
2022/06/06 03:29:41;;;;;;;12.30;11.13;;;20.20;99.90;;;;;;5089143;28;20198;-68
2022/06/06 03:32:13;;;;;;;14.60;12.15;;;20.10;99.90;;;;;;5091009;28;20209;-68
2022/06/06 03:34:54;;;;;;;14.98;13.43;;;20.00;99.90;;;;;;5090671;28;20189;-68
2022/06/06 03:37:27;;;;;;;14.38;12.27;;;19.90;99.90;;;;;;5090238;28;20163;-68
2022/06/06 03:40:30;;;;;;;14.70;13.30;;;19.80;99.90;;;;;;5074890;28;20336;-68
2022/06/06 03:43:11;;;;;;;14.80;13.45;;;19.80;99.90;;;;;;5072113;28;20218;-68
2022/06/06 03:45:49;;;;;;;16.25;13.95;;;19.80;99.90;;;;;;5086992;28;20206;-68
2022/06/06 03:48:49;;;;;;;15.95;14.35;;;19.80;99.90;;;;;;5089177;28;20202;-67
2022/06/06 03:51:31;;;;;;;16.77;14.65;;;19.80;99.90;;;;;;5082258;28;20213;-68
2022/06/06 03:54:30;;;;;;;16.80;15.23;;;19.70;99.90;;;;;;5075980;28;20190;-68
2022/06/06 03:57:15;;;;;;;16.17;14.15;;;19.80;99.90;;;;;;5075676;28;20194;-68
2022/06/06 03:59:43;;;;;;;17.83;15.95;;;19.80;99.90;;;;;;5089800;28;20254;-68
2022/06/06 04:02:13;;;;;;;16.10;14.60;;;19.90;99.90;;;;;;5090881;28;20690;-67
2022/06/06 04:04:39;;;;;;;16.33;14.82;;;19.90;99.90;;;;;;5089281;28;20186;-67
2022/06/06 04:07:04;;;;;;;16.33;14.73;;;19.90;99.90;;;;;;5091096;28;20175;-67
2022/06/06 04:09:32;;;;;;;16.20;14.20;;;19.80;99.90;;;;;;5088897;28;20201;-67
2022/06/06 04:12:16;;;;;;;16.70;15.07;;;19.80;99.90;;;;;;5082131;28;20215;-68
2022/06/06 04:14:51;;;;;;;16.00;14.50;;;19.80;99.90;;;;;;5089922;28;20276;-68
2022/06/06 04:17:35;;;;;;;16.02;14.23;;;19.80;99.90;;;;;;5089091;28;20209;-68
2022/06/06 04:20:06;;;;;;;14.77;13.27;;;19.80;99.90;;;;;;5077630;28;20275;-68
2022/06/06 04:22:50;;;;;;;15.18;13.77;;;19.80;99.90;;;;;;5089454;28;20182;-68
2022/06/06 04:25:32;;;;;;;15.25;13.85;;;19.80;99.90;;;;;;5091315;28;20259;-67
2022/06/06 04:28:13;;;;;;;14.60;13.13;;;19.70;99.90;;;;;;5079777;28;20258;-67
2022/06/06 04:30:58;;;;;;;14.68;13.20;;;19.60;99.90;;;;;;5084730;28;20306;-68
2022/06/06 04:33:30;;;;;;;14.27;13.02;;;19.60;99.90;;;;;;5094223;28;20284;-67
2022/06/06 04:36:11;;;;;;;14.98;13.48;;;19.60;99.90;;;;;;5093135;28;20279;-67
2022/06/06 04:38:43;;;;;;;16.33;14.73;;;19.60;99.90;;;;;;5094182;28;20211;-68
2022/06/06 04:41:31;;;;;;;15.02;13.48;;;19.70;99.90;;;;;;5094496;28;20734;-67
2022/06/06 04:44:06;;;;;;;15.65;14.05;;;19.70;99.90;;;;;;5092964;28;20170;-68
2022/06/06 04:46:55;;;;;;;16.42;14.73;;;19.80;99.90;;;;;;5094747;28;20213;-68
2022/06/06 04:49:23;;;;;;;15.68;14.07;;;19.80;99.90;;;;;;5092962;28;20198;-68
2022/06/06 04:51:50;;;;;;;19.60;17.50;;;19.80;99.90;;;;;;5092751;28;20202;-68
2022/06/06 04:54:18;;;;;;;17.08;15.52;;;19.80;99.90;;;;;;5093094;28;20194;-68
2022/06/06 04:56:45;;;;;;;23.50;17.88;;;19.80;99.90;;;;;;5094387;28;20198;-68
2022/06/06 04:59:12;;;;;;;17.05;15.35;;;19.90;99.90;;;;;;5094204;28;20636;-69
2022/06/06 05:01:39;;;;;;;16.38;14.73;;;19.90;99.90;;;;;;5081073;28;20210;-68
2022/06/06 05:04:05;;;;;;;14.90;13.43;;;19.90;99.90;;;;;;5094460;28;20190;-68
2022/06/06 05:06:43;;;;;;;14.88;13.48;;;19.90;99.90;;;;;;5092616;28;20679;-68
2022/06/06 05:09:17;;;;;;;13.13;11.93;;;19.90;99.90;;;;;;5092016;28;20194;-68
2022/06/06 05:11:56;;;;;;;12.70;11.50;;;19.80;99.90;;;;;;5092617;28;20202;-68
2022/06/06 05:14:59;;;;;;;11.52;10.43;;;19.90;99.90;;;;;;5094170;28;20220;-67
2022/06/06 05:17:46;;;;;;;11.82;10.65;;;19.80;99.90;;;;;;5094339;28;20234;-69
2022/06/06 05:20:37;;;;;;;11.00;10.00;;;19.80;99.90;;;;;;5093253;28;20217;-69
2022/06/06 05:23:16;;;;;;;12.10;10.90;;;19.80;99.90;;;;;;5093463;28;20213;-69
2022/06/06 05:26:17;;;;;;;11.10;10.02;;;19.70;99.90;;;;;;5092529;28;20251;-68
2022/06/06 05:29:01;;;;;;;10.70;9.70;;;19.70;99.90;;;;;;5093292;28;20669;-69
2022/06/06 05:31:48;;;;;;;10.68;9.68;;;19.90;99.90;;;;;;5082283;28;20190;-68
2022/06/06 05:34:45;;;;;;;12.13;9.80;;;20.00;99.90;;;;;;5093954;28;20210;-69
2022/06/06 05:37:21;;;;;;;10.80;9.80;;;20.20;99.90;;;;;;5093605;28;20308;-68
2022/06/06 05:40:02;;;;;;;11.27;10.23;;;20.30;99.90;;;;;;5091514;28;20605;-68
2022/06/06 05:42:50;;;;;;;10.90;9.88;;;20.50;99.90;;;;;;5093032;28;20618;-68
2022/06/06 05:45:29;;;;;;;11.05;9.90;;;20.80;99.90;;;;;;5093118;28;20255;-68
2022/06/06 05:48:28;;;;;;;10.73;9.68;;;21.00;99.90;;;;;;5092994;28;20205;-68
2022/06/06 05:51:22;;;;;;;10.15;9.25;;;21.40;99.90;;;;;;5092985;28;20705;-70
2022/06/06 05:54:13;;;;;;;11.27;10.27;;;21.50;99.90;;;;;;5093103;28;20339;-69
2022/06/06 05:56:44;;;;;;;10.23;9.32;;;21.80;99.90;;;;;;5092868;28;20570;-69
2022/06/06 05:59:19;;;;;;;9.32;8.43;;;22.20;99.90;;;;;;5091276;28;20194;-68
2022/06/06 06:02:17;;;;;;;9.93;9.02;;;22.70;99.90;;;;;;5086510;28;20733;-69
2022/06/06 06:05:03;;;;;;;8.73;7.88;;;23.40;99.90;;;;;;5060569;28;20185;-69
2022/06/06 06:07:56;;;;;;;8.90;8.10;;;24.00;99.90;;;;;;5093288;28;20530;-68
2022/06/06 06:10:41;;;;;;;8.88;8.07;;;23.90;99.90;;;;;;5053728;28;20206;-69
2022/06/06 06:13:46;;;;;;;8.48;7.47;;;24.00;99.90;;;;;;5091026;28;20202;-69
2022/06/06 06:16:15;;;;;;;8.35;7.50;;;24.00;99.90;;;;;;5091502;28;20205;-68
2022/06/06 06:19:11;;;;;;;8.27;7.55;;;24.00;99.90;;;;;;5092013;28;20206;-68
2022/06/06 06:21:57;;;;;;;10.18;7.43;;;24.70;99.90;;;;;;5090733;28;20217;-69
2022/06/06 06:24:30;;;;;;;7.10;6.38;;;25.90;99.90;;;;;;5090637;28;20199;-69
2022/06/06 06:26:57;;;;;;;6.53;6.00;;;27.10;99.90;;;;;;5091068;28;20336;-70
2022/06/06 06:29:22;;;;;;;5.85;5.32;;;28.00;99.90;;;;;;5090450;28;20202;-70
2022/06/06 06:32:13;;;;;;;6.18;5.57;;;28.00;99.90;;;;;;5080230;28;20190;-69
2022/06/06 06:35:16;;;;;;;6.50;5.85;;;27.50;99.90;;;;;;5092242;28;20182;-69
2022/06/06 06:38:17;;;;;;;5.88;5.22;;;26.70;99.90;;;;;;5091818;28;20239;-69
2022/06/06 06:40:54;;;;;;;5.82;5.22;;;26.70;99.90;;;;;;5091887;28;20206;-71
2022/06/06 06:43:32;;;;;;;5.78;5.28;;;26.60;99.90;;;;;;5093168;28;20197;-69
2022/06/06 06:46:03;;;;;;;6.15;5.60;;;26.40;99.90;;;;;;5095810;28;20202;-69
2022/06/06 06:48:43;;;;;;;5.50;5.03;;;27.40;99.90;;;;;;5095871;28;20194;-69
2022/06/06 06:51:11;;;;;;;4.80;4.28;;;28.10;99.90;;;;;;5098316;28;20220;-69
2022/06/06 06:53:49;;;;;;;5.90;4.38;;;29.00;99.90;;;;;;5099941;28;20297;-69
2022/06/06 06:56:39;;;;;;;4.32;4.03;;;30.00;99.90;;;;;;5091574;28;20556;-69
2022/06/06 06:59:27;;;;;;;4.63;4.00;;;30.70;99.90;;;;;;5090218;28;20563;-69
2022/06/06 07:11:01;;;;;;;5.82;5.32;;;34.00;99.90;;;;;;5091896;28;20686;-69
2022/06/06 07:14:00;;;;;;;5.35;4.93;;;33.60;99.90;;;;;;5092466;28;20267;-69
2022/06/06 07:16:38;;;;;;;5.53;5.03;;;33.80;99.90;;;;;;5090445;28;20205;-69
2022/06/06 07:19:19;;;;;;;5.43;5.03;;;34.30;99.40;;;;;;5091341;28;20683;-69
2022/06/06 07:21:46;;;;;;;8.63;5.03;;;34.20;98.00;;;;;;5089947;28;20213;-70
2022/06/06 07:24:17;;;;;;;6.25;5.32;;;34.00;97.90;;;;;;5091385;28;20209;-69
2022/06/06 07:26:44;;;;;;;5.18;4.78;;;33.60;97.00;;;;;;5089892;28;20251;-69
2022/06/06 07:29:16;;;;;;;5.35;4.85;;;33.60;98.30;;;;;;5091085;28;20205;-69
2022/06/06 07:31:53;;;;;;;5.03;4.68;;;33.80;97.70;;;;;;5078966;28;20684;-69
2022/06/06 07:34:45;;;;;;;4.90;4.50;;;33.80;96.70;;;;;;5091743;28;20632;-69
2022/06/06 07:37:48;;;;;;;10.65;9.55;;;34.30;96.20;;;;;;5090101;28;20259;-69
2022/06/06 07:40:34;;;;;;;5.90;5.22;;;35.00;94.20;;;;;;5089759;28;20217;-69
2022/06/06 07:43:44;;;;;;;4.70;4.30;;;35.00;93.50;;;;;;5089687;28;20249;-69
2022/06/06 07:46:22;;;;;;;4.75;4.35;;;34.80;92.90;;;;;;5090051;28;20209;-69
2022/06/06 07:49:06;;;;;;;4.63;4.22;;;35.10;92.40;;;;;;5089363;28;20233;-69
2022/06/06 07:51:36;;;;;;;4.80;4.40;;;35.00;93.10;;;;;;5090607;28;20213;-69
2022/06/06 07:54:25;;;;;;;4.68;4.28;;;34.90;92.30;;;;;;5089385;28;20194;-70
2022/06/06 07:57:06;;;;;;;4.82;4.43;;;34.90;91.60;;;;;;5089381;28;20208;-70
2022/06/06 07:59:53;;;;;;;4.72;4.32;;;34.60;91.80;;;;;;5089267;28;20315;-70
2022/06/06 08:02:57;;;;;;;4.85;4.45;;;34.80;92.00;;;;;;5083374;28;20220;-71
2022/06/06 08:05:57;;;;;;;4.88;4.45;;;35.00;91.20;;;;;;5090668;28;20559;-71
2022/06/06 08:08:55;;;;;;;9.45;7.78;;;35.50;89.50;;;;;;5090413;28;20205;-71
2022/06/06 08:11:23;;;;;;;7.35;6.65;;;35.80;88.80;;;;;;5089516;28;20237;-70
2022/06/06 08:13:52;;;;;;;7.90;7.15;;;36.10;88.30;;;;;;5089372;28;20177;-70
2022/06/06 08:16:43;;;;;;;5.60;5.10;;;36.20;87.70;;;;;;5089664;28;20162;-69
2022/06/06 08:19:46;;;;;;;7.15;6.30;;;35.90;87.00;;;;;;5089374;28;20246;-71
2022/06/06 08:22:12;;;;;;;11.43;9.20;;;35.50;87.40;;;;;;5090820;28;20194;-70
2022/06/06 08:24:41;;;;;;;4.90;4.50;;;35.90;87.50;;;;;;5088932;28;20206;-70
2022/06/06 08:27:10;;;;;;;5.50;4.45;;;35.30;85.40;;;;;;5090551;28;20193;-70
2022/06/06 08:29:39;;;;;;;4.55;4.18;;;35.10;86.10;;;;;;5088454;28;20293;-70
2022/06/06 08:32:06;;;;;;;4.15;3.85;;;35.40;85.90;;;;;;5083156;28;20216;-70
2022/06/06 08:34:33;;;;;;;4.82;4.28;;;34.60;85.20;;;;;;5089584;28;20186;-70
2022/06/06 08:37:27;;;;;;;4.63;4.32;;;33.90;87.70;;;;;;5088720;28;20259;-70
2022/06/06 08:40:11;;;;;;;4.63;4.18;;;33.70;88.30;;;;;;5076429;28;20202;-70
2022/06/06 08:42:43;;;;;;;5.07;4.13;;;34.00;90.00;;;;;;5090558;28;20598;-70
2022/06/06 08:45:09;;;;;;;4.07;3.55;;;34.40;87.90;;;;;;5088866;28;20194;-70
2022/06/06 08:48:02;;;;;;;4.18;3.78;;;33.00;89.40;;;;;;5090312;28;20213;-69
2022/06/06 08:50:44;;;;;;;4.55;4.15;;;32.10;91.90;;;;;;5088729;28;20198;-70
2022/06/06 08:53:19;;;;;;;4.30;3.90;;;31.10;93.00;;;;;;5088853;28;20695;-69
2022/06/06 08:56:14;;;;;;;7.25;5.90;;;30.80;94.70;;;;;;5088607;28;20170;-70
2022/06/06 08:58:55;;;;;;;6.05;5.05;;;29.60;96.60;;;;;;5088453;28;20185;-69
2022/06/06 09:01:29;;;;;;;4.43;3.95;;;29.20;98.40;;;;;;5077135;28;20205;-70
2022/06/06 09:04:13;;;;;;;4.38;3.97;;;28.60;99.80;;;;;;5089926;28;20202;-69
2022/06/06 09:06:53;;;;;;;4.63;4.22;;;28.60;99.90;;;;;;5088475;28;20279;-69
2022/06/06 09:09:31;;;;;;;4.05;3.65;;;29.70;99.70;;;;;;5089857;28;20246;-70
2022/06/06 09:12:33;;;;;;;4.10;3.80;;;29.60;98.90;;;;;;5091324;28;20206;-70
2022/06/06 09:15:14;;;;;;;3.83;3.42;;;29.70;98.60;;;;;;5093607;28;20204;-70
2022/06/06 09:17:42;;;;;;;4.18;3.67;;;29.60;98.50;;;;;;5092130;28;20206;-69
2022/06/06 09:20:36;;;;;;;6.20;4.50;;;29.00;99.90;;;;;;5093221;28;20210;-69
2022/06/06 09:23:56;;;;;;;6.97;3.65;;;30.20;99.20;;;;;;5092116;28;20281;-69
2022/06/06 09:26:30;;;;;;;4.22;3.83;;;31.30;97.40;;;;;;5030541;28;20205;-70
2022/06/06 09:29:15;;;;;;;4.60;3.78;;;31.60;95.40;;;;;;5030378;28;20236;-69
2022/06/06 09:32:16;;;;;;;3.92;3.55;;;31.30;96.20;;;;;;5061601;28;20705;-69
2022/06/06 09:34:54;;;;;;;3.97;3.50;;;31.00;96.20;;;;;;5091860;28;20170;-69
2022/06/06 09:37:52;;;;;;;4.20;3.80;;;31.20;96.70;;;;;;5092348;28;20171;-69
2022/06/06 09:40:44;;;;;;;4.82;3.97;;;30.60;97.60;;;;;;5093813;28;20217;-71
2022/06/06 09:43:32;;;;;;;5.25;4.32;;;29.20;99.30;;;;;;5093529;28;20194;-69
2022/06/06 09:46:05;;;;;;;10.65;5.47;;;29.30;99.60;;;;;;5091708;28;20259;-68
2022/06/06 09:49:00;;;;;;;4.47;4.07;;;29.20;99.90;;;;;;5091818;28;20679;-69
2022/06/06 09:51:49;;;;;;;4.13;3.72;;;28.40;99.90;;;;;;5092770;28;20206;-70
2022/06/06 10:01:06;;;;;;;4.10;3.70;;;28.20;99.90;;;;;;5080520;28;20695;-69
2022/06/06 10:03:45;;;;;;;3.70;3.40;;;28.90;99.90;;;;;;5041349;28;20225;-71
2022/06/06 10:06:34;;;;;;;3.75;3.45;;;28.70;99.90;;;;;;5091300;28;20269;-71
2022/06/06 10:09:22;;;;;;;3.90;3.58;;;28.30;99.90;;;;;;5092562;28;20572;-70
2022/06/06 10:11:58;;;;;;;5.10;3.67;;;27.80;99.90;;;;;;5091058;28;20195;-70
2022/06/06 10:14:29;;;;;;;4.75;4.25;;;27.50;99.90;;;;;;5090725;28;20293;-69
2022/06/06 10:16:58;;;;;;;3.80;3.33;;;28.00;99.90;;;;;;5090995;28;20178;-70
2022/06/06 10:19:37;;;;;;;5.32;3.60;;;28.40;99.90;;;;;;5091080;28;20213;-70
2022/06/06 10:22:02;;;;;;;5.30;3.83;;;28.70;99.90;;;;;;5090681;28;20305;-70
2022/06/06 10:24:51;;;;;;;4.80;3.60;;;28.80;99.90;;;;;;5090605;28;20281;-70
2022/06/06 10:27:51;;;;;;;5.13;3.83;;;28.50;99.90;;;;;;5053262;28;20208;-70
2022/06/06 10:30:44;;;;;;;4.70;4.03;;;28.20;99.90;;;;;;5079818;28;20204;-70
2022/06/06 10:33:35;;;;;;;5.18;4.50;;;28.30;99.90;;;;;;5081127;28;20206;-71
2022/06/06 10:36:40;;;;;;;3.53;3.22;;;28.20;99.90;;;;;;5092334;28;20194;-70
2022/06/06 10:39:39;;;;;;;4.60;3.58;;;28.70;99.90;;;;;;5090181;28;20198;-70
2022/06/06 10:42:20;;;;;;;5.50;3.85;;;28.50;99.90;;;;;;5090475;28;20206;-70
2022/06/06 10:45:14;;;;;;;7.35;6.10;;;28.40;99.90;;;;;;5091994;28;20689;-70
2022/06/06 10:48:09;;;;;;;7.20;5.53;;;28.80;99.90;;;;;;5090450;28;20296;-70
2022/06/06 10:53:59;;;;;;;5.38;4.43;;;28.80;99.90;;;;;;5091653;28;20217;-70
2022/06/06 10:56:30;;;;;;;4.88;3.78;;;28.60;99.90;;;;;;5091994;28;20198;-71
2022/06/06 10:59:15;;;;;;;4.55;3.88;;;28.70;99.90;;;;;;5097814;28;20257;-71
2022/06/06 11:01:49;;;;;;;3.97;3.55;;;29.00;99.90;;;;;;5085144;28;20217;-71
2022/06/06 11:04:52;;;;;;;4.15;3.47;;;29.80;99.90;;;;;;5092777;28;20248;-71
2022/06/06 11:07:40;;;;;;;3.78;3.25;;;29.90;99.90;;;;;;5090561;28;20232;-72
2022/06/06 11:10:35;;;;;;;4.07;3.58;;;29.70;99.90;;;;;;5090439;28;20240;-71
2022/06/06 11:13:22;;;;;;;4.35;3.75;;;29.80;99.90;;;;;;5091643;28;20592;-71
2022/06/06 11:16:30;;;;;;;4.53;3.85;;;29.30;99.90;;;;;;5090083;28;20205;-70
2022/06/06 11:19:33;;;;;;;4.53;3.47;;;29.40;99.90;;;;;;5089933;28;20292;-70
2022/06/06 11:22:07;;;;;;;4.00;3.60;;;29.60;99.90;;;;;;5091318;28;20645;-69
2022/06/06 11:24:40;;;;;;;3.85;3.38;;;28.90;99.90;;;;;;5089717;28;20279;-69
2022/06/06 11:27:43;;;;;;;4.28;3.30;;;29.00;99.90;;;;;;5091419;28;20198;-70
2022/06/06 11:30:29;;;;;;;4.30;3.25;;;29.00;99.90;;;;;;5081114;28;20268;-70
2022/06/06 11:33:25;;;;;;;3.60;3.30;;;29.20;99.90;;;;;;5075698;28;20252;-70
2022/06/06 11:35:52;;;;;;;4.07;3.65;;;29.60;99.90;;;;;;5089804;28;20285;-69
2022/06/06 11:38:35;;;;;;;3.17;2.88;;;28.80;99.90;;;;;;5090703;28;20740;-69
2022/06/06 11:41:26;;;;;;;4.55;3.75;;;29.00;99.90;;;;;;5091083;28;20225;-69
2022/06/06 11:44:07;;;;;;;3.38;3.08;;;29.00;99.90;;;;;;5089764;28;20280;-69
2022/06/06 11:47:04;;;;;;;5.50;3.47;;;29.20;99.90;;;;;;5090253;28;20216;-70
2022/06/06 11:50:05;;;;;;;5.40;3.88;;;29.40;99.90;;;;;;5089717;28;20206;-69
2022/06/06 11:52:50;;;;;;;3.30;3.00;;;29.00;99.90;;;;;;5091268;28;20228;-70
2022/06/06 11:55:21;;;;;;;5.32;3.13;;;29.30;99.90;;;;;;5090102;28;20204;-72
2022/06/06 11:58:10;;;;;;;4.85;3.58;;;29.50;99.90;;;;;;5089769;28;20213;-70
2022/06/06 12:01:01;;;;;;;3.53;3.08;;;29.40;99.90;;;;;;5078777;28;20713;-70
2022/06/06 12:03:48;;;;;;;3.78;3.30;;;29.20;99.90;;;;;;5089483;28;20201;-71
2022/06/06 12:06:33;;;;;;;3.95;3.33;;;29.20;99.90;;;;;;5090894;28;20662;-70
2022/06/06 12:09:25;;;;;;;4.55;3.03;;;28.90;99.90;;;;;;5089449;28;20255;-70
2022/06/06 12:12:12;;;;;;;3.42;3.13;;;28.60;99.90;;;;;;5090876;28;20259;-71
2022/06/06 12:15:08;;;;;;;4.03;3.05;;;28.70;99.90;;;;;;5089465;28;20205;-71
2022/06/06 12:18:00;;;;;;;3.30;2.97;;;28.40;99.90;;;;;;5090674;28;20702;-71
2022/06/06 12:20:35;;;;;;;4.65;3.28;;;28.30;99.90;;;;;;5089133;28;20217;-70
2022/06/06 12:23:19;;;;;;;6.70;3.97;;;28.50;99.90;;;;;;5089476;28;20208;-70
2022/06/06 12:26:17;;;;;;;4.18;3.10;;;28.50;99.90;;;;;;5089240;28;20303;-70
2022/06/06 12:28:43;;;;;;;3.17;2.90;;;28.40;99.90;;;;;;5044889;28;20190;-71
2022/06/06 12:31:14;;;;;;;3.50;3.00;;;28.10;99.90;;;;;;5077785;28;20186;-71
2022/06/06 12:33:58;;;;;;;4.85;4.30;;;27.80;99.90;;;;;;5089300;28;20198;-70
2022/06/06 12:36:38;;;;;;;4.93;3.10;;;27.70;99.90;;;;;;5089253;28;20202;-71
2022/06/06 12:39:39;;;;;;;4.68;3.33;;;27.50;99.90;;;;;;5090562;28;20209;-71
2022/06/06 12:42:17;;;;;;;5.28;3.30;;;27.50;99.90;;;;;;5075465;28;20212;-72
2022/06/06 12:45:00;;;;;;;3.58;3.10;;;27.40;99.90;;;;;;5089209;28;20251;-70
2022/06/06 12:47:38;;;;;;;9.55;3.33;;;27.50;99.90;;;;;;5092721;28;20198;-70
2022/06/06 12:50:25;;;;;;;3.35;2.90;;;27.80;99.90;;;;;;5094196;28;20697;-71
2022/06/06 12:53:15;;;;;;;4.72;4.22;;;27.80;99.90;;;;;;5094302;28;20170;-71
2022/06/06 12:55:56;;;;;;;15.82;13.85;;;28.00;99.90;;;;;;5092992;28;20175;-70
2022/06/06 12:58:38;;;;;;;6.25;3.85;;;28.20;99.90;;;;;;5092950;28;20716;-70
2022/06/06 13:01:40;;;;;;;4.28;3.50;;;28.50;99.90;;;;;;5080923;28;20229;-69
2022/06/06 13:04:37;;;;;;;3.85;2.90;;;27.80;99.90;;;;;;5093232;28;20201;-70
2022/06/06 13:07:24;;;;;;;5.30;3.10;;;27.20;99.90;;;;;;5093130;28;20210;-70
2022/06/06 13:10:03;;;;;;;4.00;3.33;;;27.40;99.90;;;;;;5093977;28;20639;-70
2022/06/06 13:12:40;;;;;;;4.70;3.50;;;27.80;99.90;;;;;;5092501;28;20206;-71
2022/06/06 13:15:18;;;;;;;4.10;3.22;;;27.90;99.90;;;;;;5092827;28;20210;-69
2022/06/06 13:17:52;;;;;;;5.00;3.35;;;27.80;99.90;;;;;;5093287;28;20739;-71
2022/06/06 13:20:35;;;;;;;4.55;3.95;;;28.10;99.90;;;;;;5093513;28;20716;-70
2022/06/06 13:23:39;;;;;;;6.82;6.13;;;28.60;99.90;;;;;;5093863;28;20229;-71
2022/06/06 13:26:36;;;;;;;4.18;3.25;;;28.90;99.90;;;;;;5080947;28;20210;-70
2022/06/06 13:29:03;;;;;;;3.47;2.95;;;28.80;99.90;;;;;;5092091;28;20206;-70
2022/06/06 13:31:57;;;;;;;4.53;3.63;;;29.00;99.90;;;;;;5080713;28;20201;-70
2022/06/06 13:34:51;;;;;;;5.20;2.97;;;28.70;99.90;;;;;;5092388;28;20281;-69
2022/06/06 13:37:38;;;;;;;12.57;11.02;;;28.30;99.90;;;;;;5094324;28;20206;-68
2022/06/06 13:40:23;;;;;;;4.95;4.32;;;28.40;99.90;;;;;;5093336;28;20241;-71
2022/06/06 13:42:55;;;;;;;5.38;3.33;;;28.60;99.90;;;;;;5092183;28;20650;-70
2022/06/06 13:45:34;;;;;;;3.70;2.97;;;28.30;99.90;;;;;;5092205;28;20277;-70
2022/06/06 13:48:25;;;;;;;4.97;3.20;;;28.50;99.90;;;;;;5091718;28;20221;-71
2022/06/06 13:51:07;;;;;;;3.83;3.10;;;28.40;99.90;;;;;;5091900;28;20207;-70
2022/06/06 13:53:58;;;;;;;3.85;2.88;;;28.50;99.90;;;;;;5093005;28;20201;-69
2022/06/06 13:56:32;;;;;;;4.20;3.28;;;28.60;99.90;;;;;;5091579;28;20216;-69
2022/06/06 13:59:39;;;;;;;5.35;3.53;;;28.60;99.90;;;;;;5091906;28;20667;-69
2022/06/06 14:02:21;;;;;;;4.63;3.33;;;28.70;99.90;;;;;;5081531;28;20239;-70
2022/06/06 14:05:05;;;;;;;4.38;3.88;;;29.10;99.90;;;;;;5091753;28;20183;-70
2022/06/06 14:07:37;;;;;;;3.55;2.85;;;29.40;99.90;;;;;;5093398;28;20174;-70
2022/06/06 14:10:13;;;;;;;3.95;3.63;;;29.20;99.90;;;;;;5091462;28;20240;-70
2022/06/06 14:13:05;;;;;;;4.30;3.90;;;29.30;99.90;;;;;;5091534;28;20262;-70